createdAt,value
2018-11-03T00:00:44.255Z,16.20
2018-11-03T00:03:13.191Z,16.80
2018-11-03T00:05:42.082Z,15.63
2018-11-03T00:08:10.976Z,17.43
2018-11-03T00:10:39.853Z,16.80
2018-11-03T00:13:08.733Z,17.83
2018-11-03T00:15:37.762Z,17.20
2018-11-03T00:18:06.992Z,18.50
2018-11-03T00:20:35.914Z,16.97
2018-11-03T00:23:04.872Z,17.00
2018-11-03T00:25:33.840Z,17.77
2018-11-03T00:28:02.787Z,18.40
2018-11-03T00:30:31.688Z,17.83
2018-11-03T00:33:00.598Z,17.20
2018-11-03T00:35:29.483Z,17.33
2018-11-03T00:37:58.378Z,18.33
2018-11-03T00:40:27.340Z,18.97
2018-11-03T00:42:56.305Z,18.20
2018-11-03T00:45:25.194Z,16.80
2018-11-03T00:47:54.131Z,16.90
2018-11-03T00:50:23.033Z,19.00
2018-11-03T00:52:52.003Z,15.50
2018-11-03T00:55:20.875Z,15.60
2018-11-03T00:57:49.767Z,16.07
2018-11-03T01:00:19.258Z,16.63
2018-11-03T01:02:49.166Z,15.67
2018-11-03T01:05:18.113Z,16.10
2018-11-03T01:07:47.601Z,15.47
2018-11-03T01:10:17.435Z,15.80
2018-11-03T01:12:46.403Z,15.60
2018-11-03T01:15:16.491Z,16.87
2018-11-03T01:17:45.575Z,17.10
2018-11-03T01:20:15.802Z,16.43
2018-11-03T01:22:44.866Z,17.93
2018-11-03T01:25:13.820Z,17.30
2018-11-03T01:27:42.719Z,16.33
2018-11-03T01:30:14.340Z,17.60
2018-11-03T01:32:43.484Z,14.77
2018-11-03T01:35:12.245Z,16.03
2018-11-03T01:37:41.269Z,15.47
2018-11-03T01:40:12.163Z,17.47
2018-11-03T01:42:41.046Z,17.00
2018-11-03T01:45:10.142Z,17.00
2018-11-03T01:47:39.060Z,15.37
2018-11-03T01:50:10.648Z,16.43
2018-11-03T01:52:40.379Z,16.60
2018-11-03T01:55:09.371Z,16.10
2018-11-03T01:57:38.700Z,15.90
2018-11-03T02:00:08.794Z,17.47
2018-11-03T02:02:37.767Z,17.77
2018-11-03T02:05:07.703Z,16.80
2018-11-03T02:07:36.640Z,16.97
2018-11-03T02:10:07.442Z,16.77
2018-11-03T02:12:36.360Z,17.33
2018-11-03T02:15:05.411Z,17.70
2018-11-03T02:17:34.327Z,17.73
2018-11-03T02:20:03.301Z,17.90
2018-11-03T02:22:32.307Z,16.83
2018-11-03T02:25:01.198Z,17.20
2018-11-03T02:27:30.104Z,19.83
2018-11-03T02:29:59.991Z,19.27
2018-11-03T02:32:28.879Z,18.70
2018-11-03T02:34:57.797Z,20.33
2018-11-03T02:37:26.639Z,19.50
2018-11-03T02:39:55.630Z,18.50
2018-11-03T02:42:24.583Z,17.67
2018-11-03T02:44:53.541Z,17.93
2018-11-03T02:47:22.419Z,20.70
2018-11-03T02:49:51.315Z,21.03
2018-11-03T02:52:20.300Z,20.47
2018-11-03T02:54:49.206Z,20.60
2018-11-03T02:57:18.088Z,19.17
2018-11-03T02:59:47.075Z,21.57
2018-11-03T03:02:16.125Z,21.13
2018-11-03T03:04:45.071Z,20.63
2018-11-03T03:07:13.999Z,21.20
2018-11-03T03:09:42.946Z,21.80
2018-11-03T03:12:11.917Z,20.17
2018-11-03T03:14:40.831Z,20.77
2018-11-03T03:17:09.790Z,21.67
2018-11-03T03:19:38.734Z,20.10
2018-11-03T03:22:07.611Z,19.83
2018-11-03T03:24:36.496Z,19.70
2018-11-03T03:27:05.594Z,20.53
2018-11-03T03:29:34.508Z,20.13
2018-11-03T03:32:03.470Z,19.80
2018-11-03T03:34:32.365Z,21.40
2018-11-03T03:37:01.256Z,20.27
2018-11-03T03:39:30.122Z,20.60
2018-11-03T03:44:07.980Z,20.70
2018-11-03T03:46:36.934Z,19.53
2018-11-03T03:49:06.211Z,20.90
2018-11-03T03:51:35.131Z,21.77
2018-11-03T03:54:04.105Z,19.63
2018-11-03T03:56:33.052Z,19.60
2018-11-03T03:59:03.789Z,19.17
2018-11-03T04:01:32.722Z,19.60
2018-11-03T04:04:01.623Z,20.10
2018-11-03T04:06:30.583Z,20.57
2018-11-03T04:08:59.539Z,19.50
2018-11-03T04:11:28.531Z,19.00
2018-11-03T04:13:57.515Z,20.20
2018-11-03T04:16:26.412Z,19.30
2018-11-03T04:18:55.280Z,20.30
2018-11-03T04:21:28.950Z,21.00
2018-11-03T04:23:58.238Z,20.23
2018-11-03T04:26:28.776Z,21.07
2018-11-03T04:28:58.374Z,20.83
2018-11-03T04:31:27.885Z,20.70
2018-11-03T04:33:57.094Z,20.77
2018-11-03T04:36:26.166Z,20.67
2018-11-03T04:38:55.158Z,19.77
2018-11-03T04:41:24.095Z,21.10
2018-11-03T04:43:53.008Z,20.90
2018-11-03T04:46:21.963Z,20.90
2018-11-03T04:48:55.048Z,19.70
2018-11-03T04:51:23.952Z,18.80
2018-11-03T04:53:52.840Z,20.00
2018-11-03T04:56:21.753Z,19.57
2018-11-03T04:58:50.710Z,19.17
2018-11-03T05:01:19.634Z,19.50
2018-11-03T05:03:48.496Z,19.50
2018-11-03T05:06:18.406Z,19.67
2018-11-03T05:08:47.581Z,19.33
2018-11-03T05:11:16.529Z,18.90
2018-11-03T05:13:45.507Z,19.37
2018-11-03T05:16:14.402Z,17.80
2018-11-03T05:18:43.436Z,18.80
2018-11-03T05:21:12.349Z,20.10
2018-11-03T05:23:41.154Z,19.60
2018-11-03T05:26:10.046Z,19.83
2018-11-03T05:28:38.951Z,20.00
2018-11-03T05:31:07.865Z,19.67
2018-11-03T05:33:36.702Z,20.00
2018-11-03T05:36:05.830Z,19.10
2018-11-03T05:38:34.816Z,20.00
2018-11-03T05:41:03.691Z,20.03
2018-11-03T05:43:32.606Z,18.73
2018-11-03T05:46:02.498Z,18.60
2018-11-03T05:48:31.396Z,18.70
2018-11-03T05:51:00.363Z,21.70
2018-11-03T05:53:29.254Z,19.80
2018-11-03T05:55:58.174Z,19.30
2018-11-03T05:58:27.034Z,18.30
2018-11-03T06:00:55.933Z,20.20
2018-11-03T06:03:24.815Z,20.30
2018-11-03T06:05:53.700Z,18.87
2018-11-03T06:08:22.615Z,20.57
2018-11-03T06:10:51.488Z,21.67
2018-11-03T06:13:20.438Z,20.87
2018-11-03T06:15:49.376Z,20.10
2018-11-03T06:18:18.239Z,21.53
2018-11-03T06:20:47.219Z,20.87
2018-11-03T06:23:16.167Z,21.50
2018-11-03T06:25:45.086Z,20.23
2018-11-03T06:28:14.066Z,24.90
2018-11-03T06:30:42.894Z,23.70
2018-11-03T06:33:11.871Z,20.63
2018-11-03T06:35:40.786Z,19.70
2018-11-03T06:38:09.708Z,19.57
2018-11-03T06:40:38.622Z,21.93
2018-11-03T06:43:07.658Z,22.43
2018-11-03T06:45:36.587Z,21.60
2018-11-03T06:48:06.167Z,21.47
2018-11-03T06:50:35.073Z,21.90
2018-11-03T06:53:03.979Z,21.00
2018-11-03T06:55:32.907Z,20.40
2018-11-03T06:58:01.999Z,20.97
2018-11-03T07:00:31.042Z,22.03
2018-11-03T07:02:59.949Z,20.77
2018-11-03T07:05:28.839Z,19.60
2018-11-03T07:07:57.707Z,21.60
2018-11-03T07:10:26.699Z,20.43
2018-11-03T07:12:55.666Z,20.17
2018-11-03T07:15:24.552Z,20.90
2018-11-03T07:17:53.370Z,20.33
2018-11-03T07:20:22.262Z,19.63
2018-11-03T07:22:51.165Z,19.93
2018-11-03T07:25:20.046Z,20.53
2018-11-03T07:27:48.953Z,19.70
2018-11-03T07:30:17.950Z,21.03
2018-11-03T07:32:46.880Z,22.20
2018-11-03T07:35:15.815Z,21.00
2018-11-03T07:37:44.777Z,22.10
2018-11-03T07:40:13.602Z,19.50
2018-11-03T07:42:42.935Z,20.20
2018-11-03T07:45:11.800Z,21.60
2018-11-03T07:47:41.118Z,20.83
2018-11-03T07:50:11.864Z,20.13
2018-11-03T07:52:41.354Z,20.67
2018-11-03T07:55:11.701Z,20.30
2018-11-03T07:57:40.998Z,20.37
2018-11-03T08:00:12.345Z,20.67
2018-11-03T08:02:41.303Z,20.23
2018-11-03T08:05:11.658Z,19.67
2018-11-03T08:07:40.627Z,19.90
2018-11-03T08:10:10.759Z,19.80
2018-11-03T08:12:39.738Z,19.63
2018-11-03T08:15:09.971Z,22.10
2018-11-03T08:17:39.298Z,21.40
2018-11-03T08:20:10.041Z,20.40
2018-11-03T08:22:39.345Z,21.13
2018-11-03T08:25:08.602Z,19.70
2018-11-03T08:27:37.615Z,19.93
2018-11-03T08:30:10.041Z,21.20
2018-11-03T08:32:39.283Z,19.97
2018-11-03T08:35:09.420Z,18.87
2018-11-03T08:37:38.682Z,19.47
2018-11-03T08:40:09.854Z,18.43
2018-11-03T08:42:39.136Z,19.00
2018-11-03T08:45:08.639Z,18.47
2018-11-03T08:47:37.598Z,17.77
2018-11-03T08:50:08.871Z,17.93
2018-11-03T08:52:37.883Z,18.50
2018-11-03T08:55:08.525Z,19.20
2018-11-03T08:57:37.423Z,18.03
2018-11-03T09:00:09.911Z,17.60
2018-11-03T09:02:39.066Z,16.20
2018-11-03T09:05:08.661Z,16.10
2018-11-03T09:07:38.066Z,15.30
2018-11-03T09:10:11.005Z,15.60
2018-11-03T09:12:39.941Z,15.67
2018-11-03T09:15:11.093Z,14.27
2018-11-03T09:17:41.023Z,14.30
2018-11-03T09:20:11.637Z,14.33
2018-11-03T09:22:40.947Z,12.83
2018-11-03T09:25:12.504Z,13.73
2018-11-03T09:27:42.413Z,13.47
2018-11-03T09:30:15.523Z,13.33
2018-11-03T09:32:44.450Z,11.87
2018-11-03T09:35:14.502Z,14.13
2018-11-03T09:37:43.510Z,14.40
2018-11-03T09:40:15.151Z,14.53
2018-11-03T09:42:45.184Z,14.50
2018-11-03T09:45:14.462Z,13.87
2018-11-03T09:47:43.874Z,14.77
2018-11-03T09:50:14.322Z,13.57
2018-11-03T09:52:43.592Z,12.67
2018-11-03T09:55:15.094Z,12.77
2018-11-03T09:57:44.125Z,12.60
2018-11-03T10:00:15.198Z,12.80
2018-11-03T10:02:44.075Z,14.27
2018-11-03T10:05:13.861Z,13.70
2018-11-03T10:07:42.818Z,12.33
2018-11-03T10:10:14.220Z,12.87
2018-11-03T10:12:43.310Z,14.00
2018-11-03T10:15:13.682Z,12.83
2018-11-03T10:17:43.115Z,13.67
2018-11-03T10:20:12.043Z,13.93
2018-11-03T10:22:41.045Z,12.10
2018-11-03T10:25:14.593Z,14.53
2018-11-03T10:27:44.240Z,12.90
2018-11-03T10:30:14.662Z,12.60
2018-11-03T10:32:43.830Z,12.53
2018-11-03T10:35:13.329Z,12.90
2018-11-03T10:37:42.521Z,13.13
2018-11-03T10:40:13.972Z,12.60
2018-11-03T10:42:43.365Z,13.13
2018-11-03T10:45:13.622Z,9.47
2018-11-03T10:47:43.441Z,12.47
2018-11-03T10:50:19.284Z,12.20
2018-11-03T10:55:45.327Z,10.87
2018-11-03T10:58:14.216Z,11.13
2018-11-03T11:00:48.528Z,10.20
2018-11-03T11:03:22.771Z,12.00
2018-11-03T11:05:52.654Z,10.90
2018-11-03T11:08:27.750Z,10.80
2018-11-03T11:11:02.050Z,11.47
2018-11-03T11:13:32.549Z,10.47
2018-11-03T11:16:01.648Z,11.20
2018-11-03T11:18:30.513Z,10.27
2018-11-03T11:20:59.428Z,8.30
2018-11-03T11:23:28.359Z,9.53
2018-11-03T11:25:57.307Z,9.33
2018-11-03T11:28:26.323Z,8.93
2018-11-03T11:30:55.207Z,9.40
2018-11-03T11:33:24.083Z,8.50
2018-11-03T11:35:52.974Z,8.67
2018-11-03T11:38:21.864Z,8.03
2018-11-03T11:40:50.768Z,10.30
2018-11-03T11:43:19.740Z,8.37
2018-11-03T11:45:48.514Z,9.50
2018-11-03T11:48:17.467Z,7.80
2018-11-03T11:50:46.567Z,8.10
2018-11-03T11:53:15.467Z,8.33
2018-11-03T11:55:44.369Z,6.50
2018-11-03T11:58:13.342Z,7.13
2018-11-03T12:00:42.315Z,6.73
2018-11-03T12:03:11.315Z,7.13
2018-11-03T12:05:40.268Z,6.67
2018-11-03T12:08:09.146Z,7.93
2018-11-03T12:10:38.051Z,6.60
2018-11-03T12:13:06.910Z,6.60
2018-11-03T12:15:35.926Z,6.43
2018-11-03T12:18:04.999Z,7.23
2018-11-03T12:20:34.583Z,6.50
2018-11-03T12:23:03.631Z,6.40
2018-11-03T12:25:32.550Z,7.10
2018-11-03T12:28:01.401Z,7.50
2018-11-03T12:30:30.278Z,7.37
2018-11-03T12:32:59.173Z,7.40
2018-11-03T12:35:28.103Z,7.03
2018-11-03T12:37:57.167Z,6.70
2018-11-03T12:40:26.070Z,5.70
2018-11-03T12:42:54.903Z,6.20
2018-11-03T12:45:23.783Z,7.37
2018-11-03T12:47:52.709Z,7.07
2018-11-03T12:50:21.562Z,7.10
2018-11-03T12:52:50.417Z,6.17
2018-11-03T12:55:19.324Z,6.83
2018-11-03T12:57:48.346Z,6.53
2018-11-03T13:00:17.222Z,5.70
2018-11-03T13:02:46.631Z,6.43
2018-11-03T13:05:15.708Z,5.60
2018-11-03T13:07:45.538Z,5.40
2018-11-03T13:10:14.539Z,5.77
2018-11-03T13:12:43.627Z,6.53
2018-11-03T13:15:13.452Z,6.10
2018-11-03T13:17:42.375Z,6.53
2018-11-03T13:20:12.755Z,6.60
2018-11-03T13:22:42.326Z,5.20
2018-11-03T13:25:11.767Z,5.30
2018-11-03T13:27:41.374Z,6.10
2018-11-03T13:30:12.726Z,5.47
2018-11-03T13:32:41.665Z,6.07
2018-11-03T13:35:12.015Z,5.33
2018-11-03T13:37:41.239Z,6.00
2018-11-03T13:40:11.669Z,6.80
2018-11-03T13:42:40.758Z,5.90
2018-11-03T13:45:10.268Z,6.10
2018-11-03T13:47:39.674Z,5.43
2018-11-03T13:50:14.353Z,6.23
2018-11-03T13:52:47.615Z,5.90
2018-11-03T13:55:16.492Z,5.37
2018-11-03T13:57:46.308Z,4.73
2018-11-03T14:00:16.493Z,6.20
2018-11-03T14:02:46.303Z,4.73
2018-11-03T14:05:15.115Z,4.97
2018-11-03T14:07:44.106Z,5.30
2018-11-03T14:10:15.258Z,4.77
2018-11-03T14:12:44.929Z,5.50
2018-11-03T14:15:15.231Z,4.50
2018-11-03T14:17:44.147Z,5.33
2018-11-03T14:20:14.159Z,4.57
2018-11-03T14:22:43.973Z,4.17
2018-11-03T14:25:15.118Z,3.73
2018-11-03T14:27:45.269Z,3.90
2018-11-03T14:30:14.439Z,3.80
2018-11-03T14:32:43.530Z,3.77
2018-11-03T14:35:13.439Z,5.80
2018-11-03T14:37:42.330Z,4.23
2018-11-03T14:40:16.551Z,4.30
2018-11-03T14:42:46.159Z,4.97
2018-11-03T14:45:16.356Z,4.43
2018-11-03T14:47:45.205Z,4.20
2018-11-03T14:50:14.120Z,3.57
2018-11-03T14:52:43.753Z,4.47
2018-11-03T14:55:13.372Z,4.27
2018-11-03T14:57:42.289Z,4.70
2018-11-03T15:00:13.132Z,6.53
2018-11-03T15:02:42.117Z,8.10
2018-11-03T15:05:11.842Z,7.50
2018-11-03T15:07:40.715Z,7.00
2018-11-03T15:10:11.403Z,7.97
2018-11-03T15:12:41.026Z,6.07
2018-11-03T15:15:12.154Z,6.47
2018-11-03T15:17:41.096Z,5.20
2018-11-03T15:20:11.015Z,5.23
2018-11-03T15:22:40.268Z,5.10
2018-11-03T15:25:10.592Z,5.03
2018-11-03T15:27:41.112Z,5.80
2018-11-03T15:30:11.656Z,5.10
2018-11-03T15:32:41.355Z,4.73
2018-11-03T15:35:11.133Z,4.97
2018-11-03T15:37:40.154Z,6.00
2018-11-03T15:40:11.784Z,5.30
2018-11-03T15:42:40.751Z,5.00
2018-11-03T15:45:13.116Z,5.80
2018-11-03T15:47:42.500Z,5.93
2018-11-03T15:50:11.882Z,4.80
2018-11-03T15:52:40.920Z,4.30
2018-11-03T15:55:09.810Z,4.80
2018-11-03T15:57:38.662Z,5.47
2018-11-03T16:00:11.758Z,5.70
2018-11-03T16:02:40.911Z,6.20
2018-11-03T16:05:09.904Z,6.63
2018-11-03T16:07:38.880Z,6.60
2018-11-03T16:10:08.607Z,5.67
2018-11-03T16:12:37.689Z,6.17
2018-11-03T16:15:08.348Z,6.30
2018-11-03T16:17:37.478Z,6.97
2018-11-03T16:20:07.775Z,6.10
2018-11-03T16:22:36.994Z,7.00
2018-11-03T16:25:07.770Z,8.27
2018-11-03T16:27:36.955Z,7.60
2018-11-03T16:30:08.826Z,8.47
2018-11-03T16:32:38.063Z,8.60
2018-11-03T16:35:07.134Z,8.47
2018-11-03T16:37:36.262Z,10.13
2018-11-03T16:40:06.166Z,9.33
2018-11-03T16:42:35.091Z,8.50
2018-11-03T16:45:04.161Z,9.73
2018-11-03T16:47:33.078Z,8.70
2018-11-03T16:50:01.970Z,9.10
2018-11-03T16:52:30.965Z,10.17
2018-11-03T16:54:59.880Z,10.10
2018-11-03T16:57:28.859Z,9.80
2018-11-03T16:59:58.270Z,8.90
2018-11-03T17:02:27.258Z,10.20
2018-11-03T17:04:56.271Z,9.90
2018-11-03T17:07:26.086Z,11.97
2018-11-03T17:09:55.039Z,23.17
2018-11-03T17:12:23.985Z,82.47
2018-11-03T17:14:52.907Z,269.90
2018-11-03T17:17:21.772Z,135.30
2018-11-03T17:19:50.698Z,72.70
2018-11-03T17:22:19.557Z,50.43
2018-11-03T17:24:48.476Z,55.83
2018-11-03T17:27:17.347Z,51.00
2018-11-03T17:29:46.255Z,45.30
2018-11-03T17:32:15.143Z,30.93
2018-11-03T17:34:44.000Z,25.87
2018-11-03T17:37:12.920Z,21.90
2018-11-03T17:39:41.871Z,21.13
2018-11-03T17:42:10.847Z,20.00
2018-11-03T17:44:39.754Z,17.17
2018-11-03T17:47:08.839Z,17.77
2018-11-03T17:49:37.840Z,16.93
2018-11-03T17:52:07.870Z,19.40
2018-11-03T17:54:36.826Z,18.73
2018-11-03T17:57:05.817Z,16.30
2018-11-03T17:59:34.626Z,85.83
2018-11-03T18:02:03.600Z,264.10
2018-11-03T18:04:32.554Z,238.60
2018-11-03T18:07:01.467Z,180.37
2018-11-03T18:09:30.379Z,106.30
2018-11-03T18:11:59.534Z,82.10
2018-11-03T18:14:28.462Z,37.37
2018-11-03T18:16:57.407Z,26.33
2018-11-03T18:19:26.262Z,25.07
2018-11-03T18:21:55.199Z,22.13
2018-11-03T18:24:24.075Z,22.07
2018-11-03T18:26:52.930Z,17.90
2018-11-03T18:29:21.820Z,20.97
2018-11-03T18:31:50.754Z,20.17
2018-11-03T18:34:19.940Z,19.37
2018-11-03T18:36:48.906Z,19.43
2018-11-03T18:39:17.826Z,19.50
2018-11-03T18:41:46.869Z,19.17
2018-11-03T18:44:16.242Z,19.40
2018-11-03T18:46:45.412Z,19.57
2018-11-03T18:49:14.255Z,18.80
2018-11-03T18:51:43.278Z,20.30
2018-11-03T18:54:12.220Z,19.93
2018-11-03T18:56:41.855Z,19.53
2018-11-03T18:59:10.847Z,18.33
2018-11-03T19:01:39.762Z,18.07
2018-11-03T19:04:08.654Z,21.50
2018-11-03T19:06:37.534Z,21.87
2018-11-03T19:09:07.746Z,23.50
2018-11-03T19:11:36.571Z,24.20
2018-11-03T19:14:05.719Z,24.20
2018-11-03T19:16:34.715Z,23.30
2018-11-03T19:19:03.615Z,24.10
2018-11-03T19:21:32.515Z,22.93
2018-11-03T19:24:01.406Z,21.90
2018-11-03T19:26:30.387Z,22.70
2018-11-03T19:28:59.367Z,24.87
2018-11-03T19:31:28.306Z,24.03
2018-11-03T19:33:59.697Z,24.27
2018-11-03T19:36:28.679Z,25.00
2018-11-03T19:38:57.611Z,23.80
2018-11-03T19:41:26.621Z,27.30
2018-11-03T19:43:55.386Z,25.90
2018-11-03T19:46:24.294Z,25.67
2018-11-03T19:48:53.230Z,25.27
2018-11-03T19:51:22.150Z,25.00
2018-11-03T19:53:53.293Z,23.30
2018-11-03T19:56:22.238Z,22.73
2018-11-03T19:58:51.292Z,23.93
2018-11-03T20:01:20.738Z,23.53
2018-11-03T20:03:49.567Z,22.60
2018-11-03T20:06:18.491Z,24.53
2018-11-03T20:08:47.355Z,24.27
2018-11-03T20:11:16.321Z,23.07
2018-11-03T20:13:45.271Z,26.20
2018-11-03T20:16:14.128Z,26.40
2018-11-03T20:18:43.103Z,26.00
2018-11-03T20:21:12.012Z,25.60
2018-11-03T20:23:40.907Z,27.93
2018-11-03T20:26:09.915Z,23.80
2018-11-03T20:28:38.800Z,25.10
2018-11-03T20:31:08.351Z,24.97
2018-11-03T20:33:37.349Z,28.37
2018-11-03T20:36:06.291Z,27.23
2018-11-03T20:38:35.184Z,27.57
2018-11-03T20:41:04.056Z,27.77
2018-11-03T20:43:32.959Z,26.10
2018-11-03T20:46:01.833Z,26.20
2018-11-03T20:48:30.743Z,26.00
2018-11-03T20:51:04.970Z,26.60
2018-11-03T20:53:33.838Z,26.73
2018-11-03T20:56:02.832Z,24.43
2018-11-03T20:58:31.762Z,26.80
2018-11-03T21:01:00.735Z,24.60
2018-11-03T21:03:29.604Z,26.80
2018-11-03T21:05:58.487Z,25.33
2018-11-03T21:08:27.376Z,25.83
2018-11-03T21:10:56.379Z,25.80
2018-11-03T21:13:25.547Z,25.67
2018-11-03T21:15:54.458Z,26.97
2018-11-03T21:18:23.332Z,26.53
2018-11-03T21:20:52.266Z,26.00
2018-11-03T21:23:21.187Z,26.03
2018-11-03T21:25:50.435Z,26.30
2018-11-03T21:28:19.314Z,28.40
2018-11-03T21:30:48.311Z,27.27
2018-11-03T21:33:17.337Z,27.30
2018-11-03T21:35:46.114Z,27.90
2018-11-03T21:40:23.674Z,61.10
2018-11-03T21:45:01.491Z,63.43
2018-11-03T21:47:30.387Z,42.83
2018-11-03T21:49:59.291Z,43.70
2018-11-03T21:52:28.286Z,50.27
2018-11-03T21:54:57.158Z,47.70
2018-11-03T21:57:26.066Z,44.13
2018-11-03T21:59:54.960Z,35.07
2018-11-03T22:02:23.822Z,29.33
2018-11-03T22:04:52.720Z,32.00
2018-11-03T22:07:21.602Z,30.93
2018-11-03T22:09:50.563Z,27.50
2018-11-03T22:12:19.558Z,26.50
2018-11-03T22:14:48.476Z,27.00
2018-11-03T22:17:17.370Z,26.57
2018-11-03T22:19:46.250Z,24.40
2018-11-03T22:22:15.221Z,26.27
2018-11-03T22:24:44.115Z,22.77
2018-11-03T22:27:13.434Z,23.77
2018-11-03T22:29:42.314Z,22.70
2018-11-03T22:32:11.202Z,24.10
2018-11-03T22:34:40.138Z,21.47
2018-11-03T22:37:09.146Z,23.13
2018-11-03T22:39:37.987Z,23.40
2018-11-03T22:42:07.002Z,23.13
2018-11-03T22:44:35.867Z,24.40
2018-11-03T22:47:04.795Z,26.03
2018-11-03T22:49:33.641Z,23.17
2018-11-03T22:52:05.886Z,23.60
2018-11-03T22:54:35.600Z,24.43
2018-11-03T22:57:04.656Z,24.20
2018-11-03T22:59:33.531Z,24.67
2018-11-03T23:02:02.438Z,23.60
2018-11-03T23:04:31.352Z,23.50
2018-11-03T23:07:00.496Z,23.37
2018-11-03T23:09:29.370Z,25.20
2018-11-03T23:11:58.264Z,24.40
2018-11-03T23:14:27.218Z,22.90
2018-11-03T23:16:56.055Z,25.83
2018-11-03T23:19:24.947Z,26.10
2018-11-03T23:21:53.835Z,25.13
2018-11-03T23:24:22.714Z,23.60
2018-11-03T23:26:51.881Z,24.90
2018-11-03T23:29:20.868Z,22.93
2018-11-03T23:31:49.767Z,24.30
2018-11-03T23:34:18.674Z,25.10
2018-11-03T23:36:47.569Z,25.37
2018-11-03T23:39:16.386Z,24.40
2018-11-03T23:41:45.371Z,25.17
2018-11-03T23:44:14.782Z,25.20
2018-11-03T23:46:43.713Z,25.00
2018-11-03T23:49:12.643Z,24.20
2018-11-03T23:51:41.506Z,27.13
2018-11-03T23:54:10.418Z,25.37
2018-11-03T23:56:39.301Z,27.93
2018-11-03T23:59:08.264Z,24.80
